sensor_id;sensor_type;location;lat;lon;timestamp;temperature;humidity
47350;DHT22;33088;51.982;5.872;2022-11-20T00:00:52;-1.80;99.90
47350;DHT22;33088;51.982;5.872;2022-11-20T00:03:18;-1.80;99.90
47350;DHT22;33088;51.982;5.872;2022-11-20T00:05:44;-1.80;99.90
47350;DHT22;33088;51.982;5.872;2022-11-20T00:08:10;-1.70;99.90
47350;DHT22;33088;51.982;5.872;2022-11-20T00:10:37;-1.90;99.90
47350;DHT22;33088;51.982;5.872;2022-11-20T00:13:03;-1.90;99.90
47350;DHT22;33088;51.982;5.872;2022-11-20T00:15:29;-1.90;99.90
47350;DHT22;33088;51.982;5.872;2022-11-20T00:17:55;-1.90;99.90
47350;DHT22;33088;51.982;5.872;2022-11-20T00:20:20;-1.80;99.90
47350;DHT22;33088;51.982;5.872;2022-11-20T00:22:46;-1.90;99.90
47350;DHT22;33088;51.982;5.872;2022-11-20T00:25:12;-1.90;99.90
47350;DHT22;33088;51.982;5.872;2022-11-20T00:27:37;-1.90;99.90
47350;DHT22;33088;51.982;5.872;2022-11-20T00:30:04;-1.90;99.90
47350;DHT22;33088;51.982;5.872;2022-11-20T00:32:30;-1.90;99.90
47350;DHT22;33088;51.982;5.872;2022-11-20T00:34:56;-1.90;99.90
47350;DHT22;33088;51.982;5.872;2022-11-20T00:37:21;-2.00;99.90
47350;DHT22;33088;51.982;5.872;2022-11-20T00:39:47;-1.90;99.90
47350;DHT22;33088;51.982;5.872;2022-11-20T00:42:13;-1.90;99.90
47350;DHT22;33088;51.982;5.872;2022-11-20T00:44:39;-1.90;99.90
47350;DHT22;33088;51.982;5.872;2022-11-20T00:47:05;-1.90;99.90
47350;DHT22;33088;51.982;5.872;2022-11-20T00:49:30;-2.00;99.90
47350;DHT22;33088;51.982;5.872;2022-11-20T00:51:56;-2.00;99.90
47350;DHT22;33088;51.982;5.872;2022-11-20T00:54:22;-2.00;99.90
47350;DHT22;33088;51.982;5.872;2022-11-20T00:56:47;-1.90;99.90
47350;DHT22;33088;51.982;5.872;2022-11-20T00:59:13;-2.00;99.90
47350;DHT22;33088;51.982;5.872;2022-11-20T01:01:38;-2.00;99.90
47350;DHT22;33088;51.982;5.872;2022-11-20T01:04:04;-2.00;99.90
47350;DHT22;33088;51.982;5.872;2022-11-20T01:06:33;-2.00;99.90
47350;DHT22;33088;51.982;5.872;2022-11-20T01:09:02;-2.00;99.90
47350;DHT22;33088;51.982;5.872;2022-11-20T01:11:31;-2.10;99.90
47350;DHT22;33088;51.982;5.872;2022-11-20T01:13:58;-2.20;99.90
47350;DHT22;33088;51.982;5.872;2022-11-20T01:16:29;-2.10;99.90
47350;DHT22;33088;51.982;5.872;2022-11-20T01:18:57;-2.10;99.90
47350;DHT22;33088;51.982;5.872;2022-11-20T01:21:26;-2.10;99.90
47350;DHT22;33088;51.982;5.872;2022-11-20T01:23:53;-2.20;99.90
47350;DHT22;33088;51.982;5.872;2022-11-20T01:26:21;-2.10;99.90
47350;DHT22;33088;51.982;5.872;2022-11-20T01:28:47;-2.20;99.90
47350;DHT22;33088;51.982;5.872;2022-11-20T01:31:22;-2.10;99.90
47350;DHT22;33088;51.982;5.872;2022-11-20T01:33:50;-2.30;99.90
47350;DHT22;33088;51.982;5.872;2022-11-20T01:36:18;-2.30;99.90
47350;DHT22;33088;51.982;5.872;2022-11-20T01:38:44;-2.40;99.90
47350;DHT22;33088;51.982;5.872;2022-11-20T01:41:10;-2.30;99.90
47350;DHT22;33088;51.982;5.872;2022-11-20T01:43:56;-2.30;99.90
47350;DHT22;33088;51.982;5.872;2022-11-20T01:46:22;-2.30;99.90
47350;DHT22;33088;51.982;5.872;2022-11-20T01:51:42;-2.20;99.90
47350;DHT22;33088;51.982;5.872;2022-11-20T01:54:17;-2.20;99.90
47350;DHT22;33088;51.982;5.872;2022-11-20T01:56:45;-2.20;99.90
47350;DHT22;33088;51.982;5.872;2022-11-20T01:59:15;-2.20;99.90
47350;DHT22;33088;51.982;5.872;2022-11-20T02:01:43;-2.20;99.90
47350;DHT22;33088;51.982;5.872;2022-11-20T02:04:09;-2.20;99.90
47350;DHT22;33088;51.982;5.872;2022-11-20T02:06:48;-2.30;99.90
47350;DHT22;33088;51.982;5.872;2022-11-20T02:09:15;-2.30;99.90
47350;DHT22;33088;51.982;5.872;2022-11-20T02:11:41;-2.50;99.90
47350;DHT22;33088;51.982;5.872;2022-11-20T02:14:07;-2.50;99.90
47350;DHT22;33088;51.982;5.872;2022-11-20T02:16:39;-2.50;99.90
47350;DHT22;33088;51.982;5.872;2022-11-20T02:19:08;-2.60;99.90
47350;DHT22;33088;51.982;5.872;2022-11-20T02:22:01;-2.60;99.90
47350;DHT22;33088;51.982;5.872;2022-11-20T02:24:27;-2.70;99.90
47350;DHT22;33088;51.982;5.872;2022-11-20T02:29:27;-2.70;99.90
47350;DHT22;33088;51.982;5.872;2022-11-20T02:31:56;-2.70;99.90
47350;DHT22;33088;51.982;5.872;2022-11-20T02:34:23;-2.60;99.90
47350;DHT22;33088;51.982;5.872;2022-11-20T02:36:49;-2.60;99.90
47350;DHT22;33088;51.982;5.872;2022-11-20T02:39:16;-2.60;99.90
47350;DHT22;33088;51.982;5.872;2022-11-20T02:41:44;-2.60;99.90
47350;DHT22;33088;51.982;5.872;2022-11-20T02:44:10;-2.60;99.90
47350;DHT22;33088;51.982;5.872;2022-11-20T02:46:36;-2.70;99.90
47350;DHT22;33088;51.982;5.872;2022-11-20T02:49:03;-2.60;99.90
47350;DHT22;33088;51.982;5.872;2022-11-20T02:51:29;-2.60;99.90
47350;DHT22;33088;51.982;5.872;2022-11-20T02:53:55;-2.60;99.90
47350;DHT22;33088;51.982;5.872;2022-11-20T02:56:21;-2.60;99.90
47350;DHT22;33088;51.982;5.872;2022-11-20T02:58:47;-2.70;99.90
47350;DHT22;33088;51.982;5.872;2022-11-20T03:01:12;-2.70;99.90
47350;DHT22;33088;51.982;5.872;2022-11-20T03:03:40;-2.70;99.90
47350;DHT22;33088;51.982;5.872;2022-11-20T03:06:06;-2.80;99.90
47350;DHT22;33088;51.982;5.872;2022-11-20T03:08:33;-2.80;99.90
47350;DHT22;33088;51.982;5.872;2022-11-20T03:11:03;-2.70;99.90
47350;DHT22;33088;51.982;5.872;2022-11-20T03:13:29;-2.70;99.90
47350;DHT22;33088;51.982;5.872;2022-11-20T03:15:54;-2.70;99.90
47350;DHT22;33088;51.982;5.872;2022-11-20T03:18:20;-2.70;99.90
47350;DHT22;33088;51.982;5.872;2022-11-20T03:20:46;-2.70;99.90
47350;DHT22;33088;51.982;5.872;2022-11-20T03:23:11;-2.60;99.90
47350;DHT22;33088;51.982;5.872;2022-11-20T03:25:37;-2.60;99.90
47350;DHT22;33088;51.982;5.872;2022-11-20T03:28:03;-2.70;99.90
47350;DHT22;33088;51.982;5.872;2022-11-20T03:30:28;-2.70;99.90
47350;DHT22;33088;51.982;5.872;2022-11-20T03:32:54;-2.60;99.90
47350;DHT22;33088;51.982;5.872;2022-11-20T03:35:20;-2.60;99.90
47350;DHT22;33088;51.982;5.872;2022-11-20T03:37:45;-2.60;99.90
47350;DHT22;33088;51.982;5.872;2022-11-20T03:40:12;-2.60;99.90
47350;DHT22;33088;51.982;5.872;2022-11-20T03:42:37;-2.70;99.90
47350;DHT22;33088;51.982;5.872;2022-11-20T03:45:17;-2.70;99.90
47350;DHT22;33088;51.982;5.872;2022-11-20T03:47:43;-2.90;99.90
47350;DHT22;33088;51.982;5.872;2022-11-20T03:50:11;-2.90;99.90
47350;DHT22;33088;51.982;5.872;2022-11-20T03:52:40;-2.90;99.90
47350;DHT22;33088;51.982;5.872;2022-11-20T03:55:06;-3.00;99.90
47350;DHT22;33088;51.982;5.872;2022-11-20T03:57:32;-3.10;99.90
47350;DHT22;33088;51.982;5.872;2022-11-20T03:59:58;-3.10;99.90
47350;DHT22;33088;51.982;5.872;2022-11-20T04:02:23;-3.10;99.90
47350;DHT22;33088;51.982;5.872;2022-11-20T04:04:49;-3.00;99.90
47350;DHT22;33088;51.982;5.872;2022-11-20T04:07:15;-3.00;99.90
47350;DHT22;33088;51.982;5.872;2022-11-20T04:09:40;-3.00;99.90
47350;DHT22;33088;51.982;5.872;2022-11-20T04:12:06;-3.10;99.90
47350;DHT22;33088;51.982;5.872;2022-11-20T04:14:32;-3.10;99.90
47350;DHT22;33088;51.982;5.872;2022-11-20T04:16:57;-3.00;99.90
47350;DHT22;33088;51.982;5.872;2022-11-20T04:19:23;-2.90;99.90
47350;DHT22;33088;51.982;5.872;2022-11-20T04:21:48;-3.00;99.90
47350;DHT22;33088;51.982;5.872;2022-11-20T04:24:14;-3.00;99.90
47350;DHT22;33088;51.982;5.872;2022-11-20T04:26:40;-2.90;99.90
47350;DHT22;33088;51.982;5.872;2022-11-20T04:29:06;-2.90;99.90
47350;DHT22;33088;51.982;5.872;2022-11-20T04:31:33;-2.90;99.90
47350;DHT22;33088;51.982;5.872;2022-11-20T04:34:00;-2.90;99.90
47350;DHT22;33088;51.982;5.872;2022-11-20T04:36:27;-3.00;99.90
47350;DHT22;33088;51.982;5.872;2022-11-20T04:38:58;-3.00;99.90
47350;DHT22;33088;51.982;5.872;2022-11-20T04:41:29;-3.10;99.90
47350;DHT22;33088;51.982;5.872;2022-11-20T04:43:57;-3.10;99.90
47350;DHT22;33088;51.982;5.872;2022-11-20T04:46:36;-3.10;99.90
47350;DHT22;33088;51.982;5.872;2022-11-20T04:49:03;-3.00;99.90
47350;DHT22;33088;51.982;5.872;2022-11-20T04:51:29;-2.80;99.90
47350;DHT22;33088;51.982;5.872;2022-11-20T04:53:55;-3.10;99.90
47350;DHT22;33088;51.982;5.872;2022-11-20T04:56:21;-3.20;99.90
47350;DHT22;33088;51.982;5.872;2022-11-20T04:58:47;-3.10;99.90
47350;DHT22;33088;51.982;5.872;2022-11-20T05:01:21;-3.10;99.90
47350;DHT22;33088;51.982;5.872;2022-11-20T05:03:47;-3.20;99.90
47350;DHT22;33088;51.982;5.872;2022-11-20T05:06:15;-3.20;99.90
47350;DHT22;33088;51.982;5.872;2022-11-20T05:08:41;-3.10;99.90
47350;DHT22;33088;51.982;5.872;2022-11-20T05:11:09;-3.10;99.90
47350;DHT22;33088;51.982;5.872;2022-11-20T05:13:36;-3.10;99.90
47350;DHT22;33088;51.982;5.872;2022-11-20T05:16:07;-3.20;99.90
47350;DHT22;33088;51.982;5.872;2022-11-20T05:18:34;-3.20;99.90
47350;DHT22;33088;51.982;5.872;2022-11-20T05:20:59;-3.20;99.90
47350;DHT22;33088;51.982;5.872;2022-11-20T05:23:25;-3.10;99.90
47350;DHT22;33088;51.982;5.872;2022-11-20T05:25:55;-3.20;99.90
47350;DHT22;33088;51.982;5.872;2022-11-20T05:28:22;-3.20;99.90
47350;DHT22;33088;51.982;5.872;2022-11-20T05:30:48;-3.20;99.90
47350;DHT22;33088;51.982;5.872;2022-11-20T05:33:14;-3.20;99.90
47350;DHT22;33088;51.982;5.872;2022-11-20T05:35:39;-3.20;99.90
47350;DHT22;33088;51.982;5.872;2022-11-20T05:38:05;-3.20;99.90
47350;DHT22;33088;51.982;5.872;2022-11-20T05:40:31;-3.20;99.90
47350;DHT22;33088;51.982;5.872;2022-11-20T05:42:56;-3.40;99.90
47350;DHT22;33088;51.982;5.872;2022-11-20T05:45:22;-3.40;99.90
47350;DHT22;33088;51.982;5.872;2022-11-20T05:47:48;-3.50;99.90
47350;DHT22;33088;51.982;5.872;2022-11-20T05:50:14;-3.40;99.90
47350;DHT22;33088;51.982;5.872;2022-11-20T05:52:40;-3.30;99.90
47350;DHT22;33088;51.982;5.872;2022-11-20T05:55:06;-3.30;99.90
47350;DHT22;33088;51.982;5.872;2022-11-20T05:57:32;-3.30;99.90
47350;DHT22;33088;51.982;5.872;2022-11-20T05:59:58;-3.30;99.90
47350;DHT22;33088;51.982;5.872;2022-11-20T06:02:23;-3.20;99.90
47350;DHT22;33088;51.982;5.872;2022-11-20T06:04:49;-3.30;99.90
47350;DHT22;33088;51.982;5.872;2022-11-20T06:07:15;-3.30;99.90
47350;DHT22;33088;51.982;5.872;2022-11-20T06:09:41;-3.20;99.90
47350;DHT22;33088;51.982;5.872;2022-11-20T06:12:07;-3.20;99.90
47350;DHT22;33088;51.982;5.872;2022-11-20T06:14:33;-3.20;99.90
47350;DHT22;33088;51.982;5.872;2022-11-20T06:16:58;-3.20;99.90
47350;DHT22;33088;51.982;5.872;2022-11-20T06:19:24;-3.20;99.90
47350;DHT22;33088;51.982;5.872;2022-11-20T06:21:50;-3.20;99.90
47350;DHT22;33088;51.982;5.872;2022-11-20T06:24:16;-3.50;99.90
47350;DHT22;33088;51.982;5.872;2022-11-20T06:26:42;-3.20;99.90
47350;DHT22;33088;51.982;5.872;2022-11-20T06:29:07;-3.20;99.90
47350;DHT22;33088;51.982;5.872;2022-11-20T06:31:33;-3.30;99.90
47350;DHT22;33088;51.982;5.872;2022-11-20T06:34:06;-3.40;99.90
47350;DHT22;33088;51.982;5.872;2022-11-20T06:36:32;-3.30;99.90
47350;DHT22;33088;51.982;5.872;2022-11-20T06:38:59;-3.30;99.90
47350;DHT22;33088;51.982;5.872;2022-11-20T06:41:24;-3.30;99.90
47350;DHT22;33088;51.982;5.872;2022-11-20T06:43:51;-3.40;99.90
47350;DHT22;33088;51.982;5.872;2022-11-20T06:46:18;-3.40;99.90
47350;DHT22;33088;51.982;5.872;2022-11-20T06:48:45;-3.40;99.90
47350;DHT22;33088;51.982;5.872;2022-11-20T06:51:11;-3.40;99.90
47350;DHT22;33088;51.982;5.872;2022-11-20T06:53:37;-3.50;99.90
47350;DHT22;33088;51.982;5.872;2022-11-20T06:56:03;-3.40;99.90
47350;DHT22;33088;51.982;5.872;2022-11-20T06:58:31;-3.40;99.90
47350;DHT22;33088;51.982;5.872;2022-11-20T07:01:05;-3.50;99.90
47350;DHT22;33088;51.982;5.872;2022-11-20T07:03:31;-3.50;99.90
47350;DHT22;33088;51.982;5.872;2022-11-20T07:05:57;-3.50;99.90
47350;DHT22;33088;51.982;5.872;2022-11-20T07:08:24;-3.50;99.90
47350;DHT22;33088;51.982;5.872;2022-11-20T07:10:50;-3.50;99.90
47350;DHT22;33088;51.982;5.872;2022-11-20T07:13:15;-3.50;99.90
47350;DHT22;33088;51.982;5.872;2022-11-20T07:15:41;-3.40;99.90
47350;DHT22;33088;51.982;5.872;2022-11-20T07:18:06;-3.40;99.90
47350;DHT22;33088;51.982;5.872;2022-11-20T07:20:32;-3.40;99.90
47350;DHT22;33088;51.982;5.872;2022-11-20T07:22:58;-3.40;99.90
47350;DHT22;33088;51.982;5.872;2022-11-20T07:25:25;-3.30;99.90
47350;DHT22;33088;51.982;5.872;2022-11-20T07:27:51;-3.30;99.90
47350;DHT22;33088;51.982;5.872;2022-11-20T07:30:17;-3.30;99.90
47350;DHT22;33088;51.982;5.872;2022-11-20T07:32:46;-3.00;99.90
47350;DHT22;33088;51.982;5.872;2022-11-20T07:35:13;-3.10;99.90
47350;DHT22;33088;51.982;5.872;2022-11-20T07:37:38;-3.00;99.90
47350;DHT22;33088;51.982;5.872;2022-11-20T07:40:04;-3.10;99.90
47350;DHT22;33088;51.982;5.872;2022-11-20T07:42:30;-3.00;99.90
47350;DHT22;33088;51.982;5.872;2022-11-20T07:44:56;-2.90;99.90
47350;DHT22;33088;51.982;5.872;2022-11-20T07:47:21;-2.90;99.90
47350;DHT22;33088;51.982;5.872;2022-11-20T07:49:47;-2.80;99.90
47350;DHT22;33088;51.982;5.872;2022-11-20T07:52:13;-2.70;99.90
47350;DHT22;33088;51.982;5.872;2022-11-20T07:54:38;-2.70;99.90
47350;DHT22;33088;51.982;5.872;2022-11-20T07:57:04;-2.60;99.90
47350;DHT22;33088;51.982;5.872;2022-11-20T07:59:29;-2.60;99.90
47350;DHT22;33088;51.982;5.872;2022-11-20T08:01:55;-2.50;99.90
47350;DHT22;33088;51.982;5.872;2022-11-20T08:04:21;-2.50;99.90
47350;DHT22;33088;51.982;5.872;2022-11-20T08:06:47;-2.40;99.90
47350;DHT22;33088;51.982;5.872;2022-11-20T08:09:12;-2.40;99.90
47350;DHT22;33088;51.982;5.872;2022-11-20T08:11:38;-2.30;99.90
47350;DHT22;33088;51.982;5.872;2022-11-20T08:14:22;-2.20;99.90
47350;DHT22;33088;51.982;5.872;2022-11-20T08:16:49;-2.10;99.90
47350;DHT22;33088;51.982;5.872;2022-11-20T08:19:17;-2.10;99.90
47350;DHT22;33088;51.982;5.872;2022-11-20T08:21:43;-2.00;99.90
47350;DHT22;33088;51.982;5.872;2022-11-20T08:24:10;-2.00;99.90
47350;DHT22;33088;51.982;5.872;2022-11-20T08:26:36;-2.00;99.90
47350;DHT22;33088;51.982;5.872;2022-11-20T08:29:03;-2.00;99.90
47350;DHT22;33088;51.982;5.872;2022-11-20T08:31:29;-1.90;99.90
47350;DHT22;33088;51.982;5.872;2022-11-20T08:33:55;-1.80;99.90
47350;DHT22;33088;51.982;5.872;2022-11-20T08:36:21;-1.70;99.90
47350;DHT22;33088;51.982;5.872;2022-11-20T08:38:49;-1.60;99.90
47350;DHT22;33088;51.982;5.872;2022-11-20T08:41:15;-1.50;99.90
47350;DHT22;33088;51.982;5.872;2022-11-20T08:43:58;-1.40;99.90
47350;DHT22;33088;51.982;5.872;2022-11-20T08:46:26;-1.50;99.90
47350;DHT22;33088;51.982;5.872;2022-11-20T08:48:52;-1.50;99.90
47350;DHT22;33088;51.982;5.872;2022-11-20T08:51:18;-1.40;99.90
47350;DHT22;33088;51.982;5.872;2022-11-20T08:53:44;-1.40;99.90
47350;DHT22;33088;51.982;5.872;2022-11-20T08:56:11;-1.30;99.90
47350;DHT22;33088;51.982;5.872;2022-11-20T08:58:38;-1.20;99.90
47350;DHT22;33088;51.982;5.872;2022-11-20T09:01:04;-1.10;99.90
47350;DHT22;33088;51.982;5.872;2022-11-20T09:03:30;-1.20;99.90
47350;DHT22;33088;51.982;5.872;2022-11-20T09:05:58;-1.20;99.90
47350;DHT22;33088;51.982;5.872;2022-11-20T09:08:24;-1.20;99.90
47350;DHT22;33088;51.982;5.872;2022-11-20T09:10:54;-1.10;99.90
47350;DHT22;33088;51.982;5.872;2022-11-20T09:13:21;-1.00;99.90
47350;DHT22;33088;51.982;5.872;2022-11-20T09:15:52;-0.90;99.90
47350;DHT22;33088;51.982;5.872;2022-11-20T09:18:17;-0.80;99.90
47350;DHT22;33088;51.982;5.872;2022-11-20T09:20:43;-0.70;99.90
47350;DHT22;33088;51.982;5.872;2022-11-20T09:23:09;-0.70;99.90
47350;DHT22;33088;51.982;5.872;2022-11-20T09:25:35;-0.60;99.90
47350;DHT22;33088;51.982;5.872;2022-11-20T09:28:00;-0.60;99.90
47350;DHT22;33088;51.982;5.872;2022-11-20T09:30:26;-0.60;99.90
47350;DHT22;33088;51.982;5.872;2022-11-20T09:32:52;-0.40;99.90
47350;DHT22;33088;51.982;5.872;2022-11-20T09:35:18;-0.50;99.90
47350;DHT22;33088;51.982;5.872;2022-11-20T09:37:44;-0.40;99.90
47350;DHT22;33088;51.982;5.872;2022-11-20T09:53:18;-0.10;99.90
47350;DHT22;33088;51.982;5.872;2022-11-20T09:55:47;-0.10;99.90
47350;DHT22;33088;51.982;5.872;2022-11-20T10:00:47;0.10;99.90
47350;DHT22;33088;51.982;5.872;2022-11-20T10:03:18;0.20;99.90
47350;DHT22;33088;51.982;5.872;2022-11-20T10:05:51;0.30;99.90
47350;DHT22;33088;51.982;5.872;2022-11-20T10:08:25;0.40;99.90
47350;DHT22;33088;51.982;5.872;2022-11-20T10:14:17;0.40;99.90
47350;DHT22;33088;51.982;5.872;2022-11-20T10:16:53;0.50;99.90
47350;DHT22;33088;51.982;5.872;2022-11-20T10:24:55;0.80;99.90
47350;DHT22;33088;51.982;5.872;2022-11-20T10:30:24;0.80;99.90
47350;DHT22;33088;51.982;5.872;2022-11-20T10:33:13;0.90;99.90
47350;DHT22;33088;51.982;5.872;2022-11-20T10:35:45;0.90;99.90
47350;DHT22;33088;51.982;5.872;2022-11-20T10:38:25;0.90;99.90
47350;DHT22;33088;51.982;5.872;2022-11-20T10:40:54;0.90;99.90
47350;DHT22;33088;51.982;5.872;2022-11-20T10:43:41;1.00;99.90
47350;DHT22;33088;51.982;5.872;2022-11-20T10:46:17;1.00;99.90
47350;DHT22;33088;51.982;5.872;2022-11-20T10:48:45;1.10;99.90
47350;DHT22;33088;51.982;5.872;2022-11-20T10:51:38;1.20;99.90
47350;DHT22;33088;51.982;5.872;2022-11-20T11:00:09;1.10;99.90
47350;DHT22;33088;51.982;5.872;2022-11-20T11:02:43;1.00;99.90
47350;DHT22;33088;51.982;5.872;2022-11-20T11:05:29;1.00;99.90
47350;DHT22;33088;51.982;5.872;2022-11-20T11:07:58;1.10;99.90
47350;DHT22;33088;51.982;5.872;2022-11-20T11:10:36;1.10;99.90
47350;DHT22;33088;51.982;5.872;2022-11-20T11:13:06;1.20;99.90
47350;DHT22;33088;51.982;5.872;2022-11-20T11:15:40;1.20;99.90
47350;DHT22;33088;51.982;5.872;2022-11-20T11:18:10;1.10;99.90
47350;DHT22;33088;51.982;5.872;2022-11-20T11:20:37;1.30;99.90
47350;DHT22;33088;51.982;5.872;2022-11-20T11:23:03;1.30;99.90
47350;DHT22;33088;51.982;5.872;2022-11-20T11:25:39;1.40;99.90
47350;DHT22;33088;51.982;5.872;2022-11-20T11:28:20;1.50;99.90
47350;DHT22;33088;51.982;5.872;2022-11-20T11:30:46;1.50;99.90
47350;DHT22;33088;51.982;5.872;2022-11-20T11:33:24;1.60;99.90
47350;DHT22;33088;51.982;5.872;2022-11-20T11:35:55;1.70;99.90
47350;DHT22;33088;51.982;5.872;2022-11-20T11:38:34;1.80;99.90
47350;DHT22;33088;51.982;5.872;2022-11-20T11:41:01;1.80;99.90
47350;DHT22;33088;51.982;5.872;2022-11-20T11:43:33;1.90;99.90
47350;DHT22;33088;51.982;5.872;2022-11-20T11:54:37;2.00;99.90
47350;DHT22;33088;51.982;5.872;2022-11-20T11:57:22;2.00;99.90
47350;DHT22;33088;51.982;5.872;2022-11-20T12:00:21;2.10;99.90
47350;DHT22;33088;51.982;5.872;2022-11-20T12:05:26;2.20;99.90
47350;DHT22;33088;51.982;5.872;2022-11-20T12:16:02;1.90;99.90
47350;DHT22;33088;51.982;5.872;2022-11-20T12:18:29;2.10;99.90
47350;DHT22;33088;51.982;5.872;2022-11-20T12:33:12;1.90;99.90
47350;DHT22;33088;51.982;5.872;2022-11-20T12:36:10;2.00;99.90
47350;DHT22;33088;51.982;5.872;2022-11-20T12:52:39;2.30;99.90
47350;DHT22;33088;51.982;5.872;2022-11-20T12:55:11;2.30;99.90
47350;DHT22;33088;51.982;5.872;2022-11-20T13:00:51;2.40;99.90
47350;DHT22;33088;51.982;5.872;2022-11-20T13:03:38;2.40;99.90
47350;DHT22;33088;51.982;5.872;2022-11-20T13:06:16;2.20;99.90
47350;DHT22;33088;51.982;5.872;2022-11-20T13:09:01;2.30;99.90
47350;DHT22;33088;51.982;5.872;2022-11-20T13:11:31;2.20;99.90
47350;DHT22;33088;51.982;5.872;2022-11-20T13:14:08;2.20;99.90
47350;DHT22;33088;51.982;5.872;2022-11-20T13:16:50;2.20;99.90
47350;DHT22;33088;51.982;5.872;2022-11-20T13:19:18;2.10;99.90
47350;DHT22;33088;51.982;5.872;2022-11-20T13:21:46;2.00;99.90
47350;DHT22;33088;51.982;5.872;2022-11-20T13:29:37;1.90;99.90
47350;DHT22;33088;51.982;5.872;2022-11-20T13:34:39;2.00;99.90
47350;DHT22;33088;51.982;5.872;2022-11-20T13:37:05;2.00;99.90
47350;DHT22;33088;51.982;5.872;2022-11-20T13:39:33;2.10;99.90
47350;DHT22;33088;51.982;5.872;2022-11-20T13:44:44;2.10;99.90
47350;DHT22;33088;51.982;5.872;2022-11-20T13:47:27;2.10;99.90
47350;DHT22;33088;51.982;5.872;2022-11-20T13:49:57;2.10;99.90
47350;DHT22;33088;51.982;5.872;2022-11-20T13:58:04;2.30;99.90
47350;DHT22;33088;51.982;5.872;2022-11-20T14:00:33;2.20;99.90
47350;DHT22;33088;51.982;5.872;2022-11-20T14:03:05;2.40;99.90
47350;DHT22;33088;51.982;5.872;2022-11-20T14:05:36;2.10;99.90
47350;DHT22;33088;51.982;5.872;2022-11-20T14:08:04;2.10;99.90
47350;DHT22;33088;51.982;5.872;2022-11-20T14:10:31;2.10;99.90
47350;DHT22;33088;51.982;5.872;2022-11-20T14:12:57;2.10;99.90
47350;DHT22;33088;51.982;5.872;2022-11-20T14:15:31;2.10;99.90
47350;DHT22;33088;51.982;5.872;2022-11-20T14:17:58;2.10;99.90
47350;DHT22;33088;51.982;5.872;2022-11-20T14:20:27;2.10;99.90
47350;DHT22;33088;51.982;5.872;2022-11-20T14:22:54;2.40;99.90
47350;DHT22;33088;51.982;5.872;2022-11-20T14:25:25;2.10;99.90
47350;DHT22;33088;51.982;5.872;2022-11-20T14:27:58;2.10;99.90
47350;DHT22;33088;51.982;5.872;2022-11-20T14:30:26;2.10;99.90
47350;DHT22;33088;51.982;5.872;2022-11-20T14:32:55;2.20;99.90
47350;DHT22;33088;51.982;5.872;2022-11-20T14:35:25;2.20;99.90
47350;DHT22;33088;51.982;5.872;2022-11-20T14:37:52;2.10;99.90
47350;DHT22;33088;51.982;5.872;2022-11-20T14:40:36;2.20;99.90
47350;DHT22;33088;51.982;5.872;2022-11-20T14:43:19;2.20;99.90
47350;DHT22;33088;51.982;5.872;2022-11-20T14:45:58;2.20;99.90
47350;DHT22;33088;51.982;5.872;2022-11-20T14:48:45;2.20;99.90
47350;DHT22;33088;51.982;5.872;2022-11-20T14:53:56;2.20;99.90
47350;DHT22;33088;51.982;5.872;2022-11-20T14:56:32;2.20;99.90
47350;DHT22;33088;51.982;5.872;2022-11-20T14:58:58;2.20;99.90
47350;DHT22;33088;51.982;5.872;2022-11-20T15:01:32;2.20;99.90
47350;DHT22;33088;51.982;5.872;2022-11-20T15:04:09;2.20;99.90
47350;DHT22;33088;51.982;5.872;2022-11-20T15:06:36;2.20;99.90
47350;DHT22;33088;51.982;5.872;2022-11-20T15:09:03;2.30;99.90
47350;DHT22;33088;51.982;5.872;2022-11-20T15:11:33;2.30;99.90
47350;DHT22;33088;51.982;5.872;2022-11-20T15:14:04;2.20;99.90
47350;DHT22;33088;51.982;5.872;2022-11-20T15:16:31;2.20;99.90
47350;DHT22;33088;51.982;5.872;2022-11-20T15:18:57;2.20;99.90
47350;DHT22;33088;51.982;5.872;2022-11-20T15:21:22;2.30;99.90
47350;DHT22;33088;51.982;5.872;2022-11-20T15:23:48;2.30;99.90
47350;DHT22;33088;51.982;5.872;2022-11-20T15:26:22;2.30;99.90
47350;DHT22;33088;51.982;5.872;2022-11-20T15:28:49;2.30;99.90
47350;DHT22;33088;51.982;5.872;2022-11-20T15:31:21;2.30;99.90
47350;DHT22;33088;51.982;5.872;2022-11-20T15:33:48;2.30;99.90
47350;DHT22;33088;51.982;5.872;2022-11-20T15:36:14;2.30;99.90
47350;DHT22;33088;51.982;5.872;2022-11-20T15:38:39;2.40;99.90
47350;DHT22;33088;51.982;5.872;2022-11-20T15:41:06;2.40;99.90
47350;DHT22;33088;51.982;5.872;2022-11-20T15:43:32;2.40;99.90
47350;DHT22;33088;51.982;5.872;2022-11-20T15:46:03;2.40;99.90
47350;DHT22;33088;51.982;5.872;2022-11-20T15:48:36;2.40;99.90
47350;DHT22;33088;51.982;5.872;2022-11-20T15:53:37;2.40;99.90
47350;DHT22;33088;51.982;5.872;2022-11-20T15:56:03;2.40;99.90
47350;DHT22;33088;51.982;5.872;2022-11-20T15:58:29;2.40;99.90
47350;DHT22;33088;51.982;5.872;2022-11-20T16:00:55;2.40;99.90
47350;DHT22;33088;51.982;5.872;2022-11-20T16:03:21;2.50;99.90
47350;DHT22;33088;51.982;5.872;2022-11-20T16:05:46;2.50;99.90
47350;DHT22;33088;51.982;5.872;2022-11-20T16:08:12;2.50;99.90
47350;DHT22;33088;51.982;5.872;2022-11-20T16:10:38;2.50;99.90
47350;DHT22;33088;51.982;5.872;2022-11-20T16:13:09;2.50;99.90
47350;DHT22;33088;51.982;5.872;2022-11-20T16:15:57;2.50;99.90
47350;DHT22;33088;51.982;5.872;2022-11-20T16:18:23;2.50;99.90
47350;DHT22;33088;51.982;5.872;2022-11-20T16:20:51;2.50;99.90
47350;DHT22;33088;51.982;5.872;2022-11-20T16:23:18;2.50;99.90
47350;DHT22;33088;51.982;5.872;2022-11-20T16:25:44;2.50;99.90
47350;DHT22;33088;51.982;5.872;2022-11-20T16:28:10;2.50;99.90
47350;DHT22;33088;51.982;5.872;2022-11-20T16:30:36;2.50;99.90
47350;DHT22;33088;51.982;5.872;2022-11-20T16:33:03;2.50;99.90
47350;DHT22;33088;51.982;5.872;2022-11-20T16:35:30;2.50;99.90
47350;DHT22;33088;51.982;5.872;2022-11-20T16:37:56;2.50;99.90
47350;DHT22;33088;51.982;5.872;2022-11-20T16:40:23;2.50;99.90
47350;DHT22;33088;51.982;5.872;2022-11-20T16:42:49;2.50;99.90
47350;DHT22;33088;51.982;5.872;2022-11-20T16:45:14;2.50;99.90
47350;DHT22;33088;51.982;5.872;2022-11-20T16:47:41;2.50;99.90
47350;DHT22;33088;51.982;5.872;2022-11-20T16:50:07;2.60;99.90
47350;DHT22;33088;51.982;5.872;2022-11-20T16:52:33;2.50;99.90
47350;DHT22;33088;51.982;5.872;2022-11-20T16:54:59;2.50;99.90
47350;DHT22;33088;51.982;5.872;2022-11-20T16:57:27;2.50;99.90
47350;DHT22;33088;51.982;5.872;2022-11-20T16:59:54;2.50;99.90
47350;DHT22;33088;51.982;5.872;2022-11-20T17:02:20;2.50;99.90
47350;DHT22;33088;51.982;5.872;2022-11-20T17:04:45;2.50;99.90
47350;DHT22;33088;51.982;5.872;2022-11-20T17:07:11;2.50;99.90
47350;DHT22;33088;51.982;5.872;2022-11-20T17:09:37;2.50;99.90
47350;DHT22;33088;51.982;5.872;2022-11-20T17:12:04;2.50;99.90
47350;DHT22;33088;51.982;5.872;2022-11-20T17:14:30;2.50;99.90
47350;DHT22;33088;51.982;5.872;2022-11-20T17:16:56;2.50;99.90
47350;DHT22;33088;51.982;5.872;2022-11-20T17:19:22;2.50;99.90
47350;DHT22;33088;51.982;5.872;2022-11-20T17:21:47;2.50;99.90
47350;DHT22;33088;51.982;5.872;2022-11-20T17:24:14;2.50;99.90
47350;DHT22;33088;51.982;5.872;2022-11-20T17:26:43;2.50;99.90
47350;DHT22;33088;51.982;5.872;2022-11-20T17:29:15;2.50;99.90
47350;DHT22;33088;51.982;5.872;2022-11-20T17:31:44;2.50;99.90
47350;DHT22;33088;51.982;5.872;2022-11-20T17:34:12;2.50;99.90